Clemons, Iowa
Current Conditions -  °F | °C
As of 1:53 AM on Friday 31 Oct 2014 (Local Time) from KMIW Reporting Station
Clear Clear  
Wind Chill: -2°   Ceiling: Unl
Heat Index:   Visibility: 10mi
Dew Point: -3°   Wind: 18mph
Humidity: 62%   Direction: 330°NNW
Pressure: 30.28"   Gusts: 28mph
Location:  42.11°N, 93.16°W
Report Text: KMIW 310653Z AUTO 33016G24KT 10SM CLR 03/M03 A3028 RMK AO2 PK WND 34028/0616 SLP256 T00331033
Loading
Personal Weather Stations






























Interactive Weather Map
Tropical Storm Tracking
New forecast layout! Learn more

10-Day Weather Forecast

Advertisements
Track Severe Weather on mobile